createdAt,value
2018-11-04T00:01:05.466Z,5.07
2018-11-04T00:03:33.556Z,6.77
2018-11-04T00:06:01.657Z,5.33
2018-11-04T00:08:29.777Z,4.83
2018-11-04T00:10:57.915Z,5.60
2018-11-04T00:13:25.993Z,5.70
2018-11-04T00:15:54.192Z,6.17
2018-11-04T00:18:22.299Z,7.63
2018-11-04T00:20:50.467Z,4.83
2018-11-04T00:23:18.608Z,10.70
2018-11-04T00:25:46.714Z,5.40
2018-11-04T00:28:14.824Z,6.17
2018-11-04T00:30:43.020Z,6.63
2018-11-04T00:33:11.097Z,6.50
2018-11-04T00:35:39.232Z,5.33
2018-11-04T00:38:07.322Z,4.75
2018-11-04T00:40:35.443Z,5.50
2018-11-04T00:43:03.530Z,5.97
2018-11-04T00:45:31.666Z,6.57
2018-11-04T00:47:59.708Z,4.30
2018-11-04T00:50:27.786Z,5.43
2018-11-04T00:52:55.896Z,4.47
2018-11-04T00:55:24.020Z,4.20
2018-11-04T00:57:52.096Z,5.37
2018-11-04T01:00:20.435Z,4.80
2018-11-04T01:02:49.923Z,6.87
2018-11-04T01:05:18.439Z,5.30
2018-11-04T01:07:46.514Z,4.20
2018-11-04T01:10:14.965Z,4.83
2018-11-04T01:12:43.636Z,4.17
2018-11-04T01:15:12.835Z,4.60
2018-11-04T01:17:41.616Z,5.35
2018-11-04T01:20:11.864Z,4.90
2018-11-04T01:22:39.951Z,3.70
2018-11-04T01:25:08.199Z,4.80
2018-11-04T01:27:36.316Z,3.60
2018-11-04T01:30:05.552Z,4.40
2018-11-04T01:32:33.794Z,6.30
2018-11-04T01:35:01.854Z,5.83
2018-11-04T01:37:29.904Z,5.50
2018-11-04T01:39:57.974Z,5.60
2018-11-04T01:42:26.123Z,4.70
2018-11-04T01:44:54.233Z,4.03
2018-11-04T01:47:22.280Z,4.80
2018-11-04T01:49:50.372Z,4.70
2018-11-04T01:52:18.427Z,5.40
2018-11-04T01:54:46.595Z,6.55
2018-11-04T01:57:14.732Z,5.47
2018-11-04T01:59:42.850Z,4.40
2018-11-04T02:02:11.055Z,6.30
2018-11-04T02:04:39.129Z,5.17
2018-11-04T02:07:07.436Z,4.70
2018-11-04T02:09:35.528Z,6.10
2018-11-04T02:12:03.644Z,4.77
2018-11-04T02:14:31.785Z,4.87
2018-11-04T02:16:59.875Z,5.30
2018-11-04T02:19:27.967Z,3.60
2018-11-04T02:21:56.116Z,8.70
2018-11-04T02:24:24.226Z,7.90
2018-11-04T02:26:52.291Z,3.80
2018-11-04T02:29:20.373Z,3.92
2018-11-04T02:31:48.438Z,3.53
2018-11-04T02:34:16.529Z,6.47
2018-11-04T02:36:44.681Z,5.17
2018-11-04T02:39:12.795Z,4.50
2018-11-04T02:41:40.916Z,5.23
2018-11-04T02:44:09.107Z,4.80
2018-11-04T02:46:38.246Z,4.37
2018-11-04T02:49:06.342Z,4.97
2018-11-04T02:51:34.408Z,5.47
2018-11-04T02:54:02.456Z,4.27
2018-11-04T02:56:30.562Z,5.97
2018-11-04T02:58:58.735Z,9.70
2018-11-04T03:01:27.077Z,9.20
2018-11-04T03:03:55.171Z,4.53
2018-11-04T03:06:23.281Z,9.00
2018-11-04T03:08:51.321Z,4.10
2018-11-04T03:11:19.427Z,6.53
2018-11-04T03:13:47.552Z,7.62
2018-11-04T03:16:15.621Z,11.33
2018-11-04T03:18:43.724Z,5.63
2018-11-04T03:21:11.803Z,6.43
2018-11-04T03:23:40.792Z,3.47
2018-11-04T03:26:09.022Z,6.47
2018-11-04T03:28:37.145Z,4.00
2018-11-04T03:31:06.060Z,6.17
2018-11-04T03:33:34.095Z,5.53
2018-11-04T03:36:02.283Z,8.40
2018-11-04T03:38:30.360Z,7.27
2018-11-04T03:40:58.463Z,6.73
2018-11-04T03:43:26.545Z,6.57
2018-11-04T03:45:54.637Z,6.50
2018-11-04T03:48:22.739Z,8.17
2018-11-04T03:50:50.806Z,6.40
2018-11-04T03:53:18.882Z,7.35
2018-11-04T03:55:46.959Z,6.13
2018-11-04T03:58:15.030Z,7.77
2018-11-04T04:00:43.591Z,7.23
2018-11-04T04:03:11.654Z,7.47
2018-11-04T04:05:39.709Z,4.30
2018-11-04T04:08:07.803Z,3.70
2018-11-04T04:10:35.872Z,3.27
2018-11-04T04:13:03.979Z,5.83
2018-11-04T04:15:32.121Z,6.30
2018-11-04T04:18:00.197Z,4.93
2018-11-04T04:20:28.277Z,7.60
2018-11-04T04:22:56.360Z,4.92
2018-11-04T04:25:24.409Z,6.20
2018-11-04T04:27:52.441Z,6.70
2018-11-04T04:30:20.472Z,3.80
2018-11-04T04:32:48.619Z,3.47
2018-11-04T04:35:16.647Z,3.33
2018-11-04T04:37:44.732Z,3.33
2018-11-04T04:40:12.866Z,5.47
2018-11-04T04:42:40.950Z,3.70
2018-11-04T04:45:09.023Z,3.50
2018-11-04T04:47:37.064Z,4.17
2018-11-04T04:50:05.409Z,3.93
2018-11-04T04:52:33.668Z,3.97
2018-11-04T04:55:01.828Z,4.83
2018-11-04T04:57:29.928Z,3.67
2018-11-04T04:59:58.099Z,4.90
2018-11-04T05:02:26.207Z,4.45
2018-11-04T05:04:54.436Z,3.50
2018-11-04T05:07:22.488Z,4.23
2018-11-04T05:09:50.504Z,3.80
2018-11-04T05:12:19.329Z,3.63
2018-11-04T05:14:47.600Z,4.60
2018-11-04T05:17:15.694Z,4.00
2018-11-04T05:19:43.726Z,4.33
2018-11-04T05:22:11.902Z,5.93
2018-11-04T05:24:40.000Z,6.27
2018-11-04T05:27:08.046Z,4.90
2018-11-04T05:29:36.222Z,10.83
2018-11-04T05:32:04.252Z,3.47
2018-11-04T05:34:32.370Z,3.75
2018-11-04T05:37:00.436Z,3.00
2018-11-04T05:39:28.502Z,6.03
2018-11-04T05:41:56.644Z,5.97
2018-11-04T05:44:24.668Z,5.80
2018-11-04T05:46:52.712Z,3.90
2018-11-04T05:49:21.759Z,5.90
2018-11-04T05:51:49.808Z,4.00
2018-11-04T05:54:17.906Z,6.83
2018-11-04T05:56:45.949Z,4.33
2018-11-04T05:59:14.000Z,3.47
2018-11-04T06:01:42.042Z,2.85
2018-11-04T06:04:10.071Z,5.23
2018-11-04T06:06:38.112Z,5.53
2018-11-04T06:09:07.944Z,7.10
2018-11-04T06:11:36.028Z,4.83
2018-11-04T06:14:04.108Z,4.87
2018-11-04T06:16:32.230Z,7.17
2018-11-04T06:19:00.308Z,5.23
2018-11-04T06:21:28.433Z,3.83
2018-11-04T06:23:56.484Z,4.13
2018-11-04T06:26:24.615Z,3.90
2018-11-04T06:28:52.671Z,3.50
2018-11-04T06:31:20.728Z,3.83
2018-11-04T06:33:48.764Z,3.83
2018-11-04T06:36:16.855Z,4.43
2018-11-04T06:38:44.920Z,4.47
2018-11-04T06:41:13.108Z,3.37
2018-11-04T06:43:41.223Z,3.67
2018-11-04T06:46:09.356Z,4.40
2018-11-04T06:48:37.520Z,3.53
2018-11-04T06:51:05.624Z,2.73
2018-11-04T06:53:33.652Z,3.20
2018-11-04T06:56:01.776Z,4.50
2018-11-04T06:58:29.854Z,3.27
2018-11-04T07:00:58.061Z,4.57
2018-11-04T07:03:26.116Z,4.10
2018-11-04T07:05:54.169Z,4.50
2018-11-04T07:08:22.218Z,4.10
2018-11-04T07:10:50.236Z,4.70
2018-11-04T07:13:18.409Z,7.10
2018-11-04T07:15:46.440Z,3.33
2018-11-04T07:18:14.468Z,4.83
2018-11-04T07:20:42.580Z,3.50
2018-11-04T07:23:10.628Z,3.42
2018-11-04T07:25:38.705Z,4.50
2018-11-04T07:28:06.725Z,3.03
2018-11-04T07:30:34.864Z,4.17
2018-11-04T07:33:02.944Z,4.03
2018-11-04T07:35:31.013Z,4.30
2018-11-04T07:37:59.811Z,6.60
2018-11-04T07:40:27.848Z,8.67
2018-11-04T07:42:55.970Z,4.00
2018-11-04T07:45:24.010Z,4.27
2018-11-04T07:47:52.088Z,6.10
2018-11-04T07:50:20.241Z,7.80
2018-11-04T07:52:48.316Z,3.50
2018-11-04T07:55:17.726Z,4.70
2018-11-04T07:57:45.772Z,5.20
2018-11-04T08:00:15.054Z,6.75
2018-11-04T08:02:43.569Z,4.93
2018-11-04T08:05:12.245Z,7.57
2018-11-04T08:07:41.022Z,13.50
2018-11-04T08:10:11.244Z,12.03
2018-11-04T08:12:39.585Z,9.18
2018-11-04T08:15:07.740Z,12.90
2018-11-04T08:17:36.143Z,15.80
2018-11-04T08:20:04.456Z,15.78
2018-11-04T08:22:32.836Z,18.87
2018-11-04T08:25:00.972Z,10.37
2018-11-04T08:27:29.046Z,12.90
2018-11-04T08:29:57.167Z,21.10
2018-11-04T08:32:25.837Z,14.97
2018-11-04T08:34:54.242Z,15.30
2018-11-04T08:37:22.338Z,12.90
2018-11-04T08:39:50.471Z,15.57
2018-11-04T08:42:18.451Z,15.72
2018-11-04T08:44:46.488Z,17.33
2018-11-04T08:47:14.763Z,14.03
2018-11-04T08:49:42.799Z,9.55
2018-11-04T08:52:10.828Z,8.80
2018-11-04T08:54:38.866Z,8.83
2018-11-04T08:57:06.999Z,11.50
2018-11-04T08:59:35.956Z,10.03
2018-11-04T09:02:03.999Z,9.83
2018-11-04T09:04:32.020Z,10.25
2018-11-04T09:07:00.053Z,10.95
2018-11-04T09:09:28.136Z,10.57
2018-11-04T09:11:56.160Z,10.00
2018-11-04T09:14:24.320Z,11.53
2018-11-04T09:16:52.323Z,6.80
2018-11-04T09:19:20.400Z,11.40
2018-11-04T09:21:48.614Z,9.30
2018-11-04T09:24:16.477Z,11.73
2018-11-04T09:26:44.545Z,12.05
2018-11-04T09:29:12.695Z,6.03
2018-11-04T09:31:40.686Z,6.60
2018-11-04T09:34:09.233Z,8.13
2018-11-04T09:36:37.449Z,10.87
2018-11-04T09:39:07.699Z,7.83
2018-11-04T09:41:35.740Z,8.30
2018-11-04T09:44:03.804Z,10.50
2018-11-04T09:46:31.832Z,7.90
2018-11-04T09:48:59.874Z,8.63
2018-11-04T09:51:27.904Z,11.17
2018-11-04T09:53:55.929Z,10.63
2018-11-04T09:56:24.088Z,7.80
2018-11-04T09:58:52.120Z,7.97
2018-11-04T10:01:20.171Z,8.07
2018-11-04T10:03:48.212Z,6.50
2018-11-04T10:06:16.286Z,7.60
2018-11-04T10:08:44.348Z,7.27
2018-11-04T10:11:12.767Z,6.20
2018-11-04T10:13:40.876Z,6.30
2018-11-04T10:16:09.010Z,5.60
2018-11-04T10:18:37.009Z,8.53
2018-11-04T10:21:05.419Z,9.23
2018-11-04T10:23:33.194Z,8.50
2018-11-04T10:26:01.329Z,4.50
2018-11-04T10:28:29.380Z,10.20
2018-11-04T10:30:57.419Z,7.10
2018-11-04T10:33:25.461Z,6.53
2018-11-04T10:35:53.482Z,7.17
2018-11-04T10:38:21.516Z,5.70
2018-11-04T10:40:49.550Z,6.03
2018-11-04T10:43:17.601Z,7.63
2018-11-04T10:45:45.642Z,7.33
2018-11-04T10:48:13.683Z,6.67
2018-11-04T10:50:41.708Z,7.20
2018-11-04T10:53:09.742Z,5.40
2018-11-04T10:55:37.843Z,6.53
2018-11-04T10:58:05.870Z,8.17
2018-11-04T11:00:39.330Z,5.67
2018-11-04T11:03:07.374Z,6.20
2018-11-04T11:05:35.453Z,6.93
2018-11-04T11:08:03.516Z,7.33
2018-11-04T11:10:31.597Z,7.53
2018-11-04T11:12:59.670Z,7.10
2018-11-04T11:15:27.746Z,7.90
2018-11-04T11:17:55.834Z,6.40
2018-11-04T11:20:23.875Z,5.03
2018-11-04T11:22:52.241Z,5.20
2018-11-04T11:25:20.080Z,9.10
2018-11-04T11:27:48.468Z,6.30
2018-11-04T11:30:16.682Z,7.70
2018-11-04T11:32:44.568Z,8.50
2018-11-04T11:35:12.604Z,8.53
2018-11-04T11:37:40.778Z,6.23
2018-11-04T11:40:09.601Z,6.63
2018-11-04T11:42:37.929Z,8.33
2018-11-04T11:45:06.535Z,7.20
2018-11-04T11:47:34.691Z,8.53
2018-11-04T11:50:02.848Z,7.40
2018-11-04T11:52:31.160Z,6.10
2018-11-04T11:54:59.195Z,6.80
2018-11-04T11:57:27.345Z,5.47
2018-11-04T11:59:55.474Z,6.22
2018-11-04T12:02:23.655Z,7.60
2018-11-04T12:04:51.813Z,4.83
2018-11-04T12:07:20.078Z,6.97
2018-11-04T12:09:48.263Z,6.97
2018-11-04T12:12:16.372Z,5.70
2018-11-04T12:14:44.434Z,5.87
2018-11-04T12:17:12.528Z,5.87
2018-11-04T12:19:40.708Z,8.10
2018-11-04T12:22:08.824Z,5.30
2018-11-04T12:24:36.921Z,4.97
2018-11-04T12:27:05.138Z,4.53
2018-11-04T12:29:33.282Z,7.23
2018-11-04T12:32:01.461Z,7.00
2018-11-04T12:34:29.581Z,8.13
2018-11-04T12:36:57.668Z,9.98
2018-11-04T12:39:25.789Z,4.90
2018-11-04T12:41:53.971Z,7.60
2018-11-04T12:44:22.496Z,7.97
2018-11-04T12:46:50.659Z,7.53
2018-11-04T12:49:18.738Z,4.65
2018-11-04T12:51:46.840Z,7.20
2018-11-04T12:54:14.980Z,3.90
2018-11-04T12:56:43.112Z,5.93
2018-11-04T12:59:11.216Z,5.92
2018-11-04T13:01:39.398Z,5.00
2018-11-04T13:04:07.471Z,4.40
2018-11-04T13:06:35.619Z,5.30
2018-11-04T13:09:04.226Z,6.35
2018-11-04T13:11:32.318Z,8.90
2018-11-04T13:14:00.434Z,9.13
2018-11-04T13:16:28.548Z,7.60
2018-11-04T13:18:56.653Z,4.80
2018-11-04T13:21:24.927Z,4.60
2018-11-04T13:23:52.917Z,5.90
2018-11-04T13:26:21.040Z,8.40
2018-11-04T13:28:49.237Z,6.20
2018-11-04T13:31:17.382Z,5.83
2018-11-04T13:33:45.521Z,5.30
2018-11-04T13:36:13.585Z,9.70
2018-11-04T13:38:41.913Z,6.40
2018-11-04T13:41:10.033Z,9.10
2018-11-04T13:43:38.128Z,11.03
2018-11-04T13:46:06.479Z,7.35
2018-11-04T13:48:34.809Z,12.60
2018-11-04T13:51:02.839Z,9.85
2018-11-04T13:53:30.991Z,10.00
2018-11-04T13:55:59.081Z,11.57
2018-11-04T13:58:27.408Z,8.90
2018-11-04T14:00:55.496Z,8.43
2018-11-04T14:03:23.613Z,10.33
2018-11-04T14:05:52.020Z,11.60
2018-11-04T14:08:20.680Z,10.93
2018-11-04T14:10:48.811Z,7.03
2018-11-04T14:13:16.967Z,9.73
2018-11-04T14:15:45.308Z,8.17
2018-11-04T14:18:13.466Z,9.57
2018-11-04T14:20:41.799Z,11.30
2018-11-04T14:23:10.385Z,7.93
2018-11-04T14:25:38.519Z,10.20
2018-11-04T14:28:07.904Z,7.73
2018-11-04T14:30:35.989Z,6.23
2018-11-04T14:33:04.437Z,8.70
2018-11-04T14:35:32.838Z,11.20
2018-11-04T14:38:00.936Z,22.93
2018-11-04T14:40:29.298Z,18.40
2018-11-04T14:42:57.456Z,16.13
2018-11-04T14:45:25.525Z,14.40
2018-11-04T14:47:53.672Z,21.30
2018-11-04T14:50:21.818Z,15.33
2018-11-04T14:52:50.303Z,13.43
2018-11-04T14:55:18.325Z,12.10
2018-11-04T14:57:46.397Z,10.83
2018-11-04T15:00:15.856Z,10.40
2018-11-04T15:02:44.502Z,10.23
2018-11-04T15:05:12.962Z,11.25
2018-11-04T15:07:41.062Z,7.95
2018-11-04T15:10:10.916Z,11.12
2018-11-04T15:12:39.301Z,12.03
2018-11-04T15:15:08.904Z,11.28
2018-11-04T15:17:37.024Z,10.30
2018-11-04T15:20:05.994Z,12.33
2018-11-04T15:22:34.380Z,6.97
2018-11-04T15:25:02.520Z,7.87
2018-11-04T15:27:30.588Z,7.07
2018-11-04T15:29:58.684Z,6.20
2018-11-04T15:32:26.757Z,7.77
2018-11-04T15:34:55.069Z,6.43
2018-11-04T15:37:23.211Z,10.43
2018-11-04T15:39:51.240Z,7.20
2018-11-04T15:42:19.355Z,6.23
2018-11-04T15:44:47.398Z,5.83
2018-11-04T15:47:16.315Z,8.67
2018-11-04T15:49:44.620Z,10.63
2018-11-04T15:52:12.832Z,10.47
2018-11-04T15:54:40.970Z,6.80
2018-11-04T15:57:13.108Z,7.90
2018-11-04T15:59:41.299Z,6.77
2018-11-04T16:02:10.612Z,7.60
2018-11-04T16:04:44.548Z,8.00
2018-11-04T16:07:07.554Z,6.00
2018-11-04T16:09:36.417Z,9.60
2018-11-04T16:12:06.093Z,5.87
2018-11-04T16:14:36.378Z,7.00
2018-11-04T16:17:05.334Z,7.97
2018-11-04T16:19:34.195Z,8.37
2018-11-04T16:22:02.769Z,6.63
2018-11-04T16:24:31.682Z,5.80
2018-11-04T16:27:00.855Z,12.40
2018-11-04T16:29:29.501Z,6.73
2018-11-04T16:31:58.640Z,8.27
2018-11-04T16:34:27.472Z,15.53
2018-11-04T16:36:57.494Z,9.03
2018-11-04T16:39:26.641Z,9.57
2018-11-04T16:41:55.505Z,9.23
2018-11-04T16:44:25.533Z,6.23
2018-11-04T16:46:54.312Z,8.90
2018-11-04T16:49:23.500Z,12.60
2018-11-04T16:51:52.472Z,8.90
2018-11-04T16:54:22.318Z,9.38
2018-11-04T16:56:52.997Z,9.50
2018-11-04T16:59:22.988Z,11.20
2018-11-04T17:01:51.908Z,9.07
2018-11-04T17:04:21.186Z,11.68
2018-11-04T17:06:49.228Z,12.80
2018-11-04T17:09:17.353Z,13.23
2018-11-04T17:11:45.473Z,10.93
2018-11-04T17:14:14.488Z,11.07
2018-11-04T17:16:42.889Z,11.90
2018-11-04T17:19:11.396Z,12.60
2018-11-04T17:21:39.719Z,27.80
2018-11-04T17:24:08.374Z,12.73
2018-11-04T17:26:36.785Z,16.87
2018-11-04T17:29:05.869Z,56.70
2018-11-04T17:31:35.413Z,35.03
2018-11-04T17:34:03.904Z,37.80
2018-11-04T17:36:32.048Z,27.10
2018-11-04T17:39:00.093Z,22.67
2018-11-04T17:41:28.267Z,19.60
2018-11-04T17:43:56.577Z,17.57
2018-11-04T17:46:24.728Z,19.03
2018-11-04T17:48:52.879Z,16.90
2018-11-04T17:51:21.029Z,14.93
2018-11-04T17:53:49.175Z,17.67
2018-11-04T17:56:17.322Z,17.13
2018-11-04T17:58:45.487Z,15.93
2018-11-04T18:01:14.551Z,13.17
2018-11-04T18:03:43.582Z,11.90
2018-11-04T18:06:11.632Z,15.00
2018-11-04T18:08:39.841Z,14.77
2018-11-04T18:11:07.864Z,11.00
2018-11-04T18:13:35.917Z,11.10
2018-11-04T18:16:04.004Z,15.53
2018-11-04T18:18:32.083Z,12.80
2018-11-04T18:21:00.164Z,14.47
2018-11-04T18:23:28.205Z,9.37
2018-11-04T18:25:56.260Z,10.15
2018-11-04T18:28:24.319Z,7.87
2018-11-04T18:30:52.396Z,8.73
2018-11-04T18:33:20.468Z,12.20
2018-11-04T18:35:48.494Z,7.03
2018-11-04T18:38:16.556Z,9.93
2018-11-04T18:40:45.629Z,7.80
2018-11-04T18:43:13.689Z,9.67
2018-11-04T18:45:42.497Z,8.50
2018-11-04T18:48:10.596Z,24.27
2018-11-04T18:50:38.716Z,10.77
2018-11-04T18:53:06.797Z,10.93
2018-11-04T18:55:35.172Z,8.30
2018-11-04T18:58:03.489Z,11.88
2018-11-04T19:00:32.146Z,7.30
2018-11-04T19:03:00.327Z,9.07
2018-11-04T19:05:28.833Z,7.57
2018-11-04T19:07:56.996Z,10.88
2018-11-04T19:10:25.173Z,12.83
2018-11-04T19:12:53.706Z,7.07
2018-11-04T19:15:21.986Z,7.13
2018-11-04T19:17:50.204Z,11.13
2018-11-04T19:20:18.429Z,9.10
2018-11-04T19:22:46.558Z,13.60
2018-11-04T19:25:15.411Z,7.53
2018-11-04T19:27:43.509Z,8.70
2018-11-04T19:30:13.394Z,5.83
2018-11-04T19:32:41.648Z,6.67
2018-11-04T19:35:10.966Z,14.53
2018-11-04T19:37:39.248Z,8.87
2018-11-04T19:40:08.728Z,10.40
2018-11-04T19:42:37.169Z,6.10
2018-11-04T19:45:05.683Z,11.93
2018-11-04T19:47:33.804Z,7.55
2018-11-04T19:50:02.013Z,9.85
2018-11-04T19:52:31.026Z,16.63
2018-11-04T19:54:59.163Z,7.03
2018-11-04T19:57:28.869Z,6.83
2018-11-04T19:59:57.865Z,7.87
2018-11-04T20:02:26.187Z,5.33
2018-11-04T20:04:54.755Z,9.60
2018-11-04T20:07:22.954Z,8.60
2018-11-04T20:09:51.032Z,5.57
2018-11-04T20:12:24.497Z,5.80
2018-11-04T20:14:53.237Z,8.78
2018-11-04T20:17:21.323Z,6.47
2018-11-04T20:19:55.054Z,10.20
2018-11-04T20:22:23.581Z,10.77
2018-11-04T20:24:57.233Z,4.87
2018-11-04T20:27:25.491Z,8.30
2018-11-04T20:35:03.630Z,6.83
2018-11-04T20:37:31.784Z,5.27
2018-11-04T20:40:05.462Z,8.00
2018-11-04T20:42:33.594Z,4.50
2018-11-04T20:45:02.073Z,6.10
2018-11-04T20:47:35.230Z,8.77
2018-11-04T20:50:08.724Z,12.47
2018-11-04T20:52:36.916Z,13.28
2018-11-04T20:55:05.242Z,7.03
2018-11-04T20:57:39.225Z,7.53
2018-11-04T21:00:10.211Z,7.12
2018-11-04T21:02:38.520Z,4.50
2018-11-04T21:05:07.749Z,7.40
2018-11-04T21:07:36.106Z,4.77
2018-11-04T21:10:05.503Z,5.20
2018-11-04T21:12:33.539Z,7.40
2018-11-04T21:15:01.601Z,6.58
2018-11-04T21:17:29.628Z,4.23
2018-11-04T21:19:57.711Z,6.53
2018-11-04T21:22:26.037Z,5.33
2018-11-04T21:24:54.159Z,6.57
2018-11-04T21:27:22.259Z,5.67
2018-11-04T21:29:50.447Z,6.40
2018-11-04T21:32:18.490Z,8.83
2018-11-04T21:34:46.894Z,4.83
2018-11-04T21:37:14.953Z,5.83
2018-11-04T21:39:43.000Z,8.40
2018-11-04T21:42:11.119Z,9.23
2018-11-04T21:44:39.294Z,9.03
2018-11-04T21:47:07.283Z,7.33
2018-11-04T21:49:35.345Z,9.73
2018-11-04T21:52:03.436Z,5.23
2018-11-04T21:54:31.581Z,14.50
2018-11-04T21:57:00.790Z,6.03
2018-11-04T21:59:28.870Z,7.67
2018-11-04T22:01:57.719Z,6.43
2018-11-04T22:04:25.955Z,6.73
2018-11-04T22:06:54.665Z,4.13
2018-11-04T22:09:22.704Z,7.87
2018-11-04T22:11:50.787Z,6.23
2018-11-04T22:14:19.104Z,5.40
2018-11-04T22:16:47.185Z,6.65
2018-11-04T22:19:15.280Z,4.83
2018-11-04T22:21:43.514Z,5.40
2018-11-04T22:24:11.540Z,8.77
2018-11-04T22:26:39.787Z,5.70
2018-11-04T22:29:07.864Z,4.40
2018-11-04T22:31:36.100Z,4.77
2018-11-04T22:34:04.259Z,5.60
2018-11-04T22:36:32.613Z,4.13
2018-11-04T22:39:00.621Z,5.47
2018-11-04T22:41:28.759Z,3.47
2018-11-04T22:43:56.949Z,4.13
2018-11-04T22:46:25.123Z,6.67
2018-11-04T22:48:53.412Z,7.47
2018-11-04T22:51:21.668Z,7.92
2018-11-04T22:53:49.688Z,4.53
2018-11-04T22:56:17.838Z,4.07
2018-11-04T22:58:45.818Z,4.80
2018-11-04T23:01:14.342Z,7.30
2018-11-04T23:03:42.466Z,4.40
2018-11-04T23:06:10.545Z,4.30
2018-11-04T23:08:38.620Z,6.20
2018-11-04T23:11:06.679Z,4.00
2018-11-04T23:13:34.744Z,5.70
2018-11-04T23:16:02.787Z,4.83
2018-11-04T23:18:30.949Z,5.23
2018-11-04T23:20:58.958Z,3.63
2018-11-04T23:23:27.104Z,3.37
2018-11-04T23:25:55.166Z,3.97
2018-11-04T23:28:23.392Z,4.60
2018-11-04T23:30:52.336Z,4.40
2018-11-04T23:33:20.792Z,5.15
2018-11-04T23:35:49.429Z,5.95
2018-11-04T23:38:17.601Z,3.93
2018-11-04T23:40:45.661Z,5.37
2018-11-04T23:43:13.680Z,6.17
2018-11-04T23:45:41.750Z,4.77
2018-11-04T23:48:09.831Z,3.67
2018-11-04T23:50:37.916Z,4.43
2018-11-04T23:53:05.944Z,5.90
2018-11-04T23:55:33.968Z,6.17
2018-11-04T23:58:02.075Z,4.00
